sensor_id;sensor_type;location;lat;lon;timestamp;pressure;altitude;pressure_sealevel;temperature;humidity
12077;BME280;12420;42.676;23.262;2023-04-25T00:00:01;93803.34;;;12.52;100.00
12077;BME280;12420;42.676;23.262;2023-04-25T00:02:32;93799.06;;;12.51;100.00
12077;BME280;12420;42.676;23.262;2023-04-25T00:05:00;93795.25;;;12.39;100.00
12077;BME280;12420;42.676;23.262;2023-04-25T00:07:27;93794.81;;;12.58;100.00
12077;BME280;12420;42.676;23.262;2023-04-25T00:09:55;93790.94;;;12.53;100.00
12077;BME280;12420;42.676;23.262;2023-04-25T00:12:21;93747.19;;;12.29;100.00
12077;BME280;12420;42.676;23.262;2023-04-25T00:14:49;93774.09;;;12.51;100.00
12077;BME280;12420;42.676;23.262;2023-04-25T00:17:16;93774.50;;;12.48;100.00
12077;BME280;12420;42.676;23.262;2023-04-25T00:19:44;93772.28;;;12.46;100.00
12077;BME280;12420;42.676;23.262;2023-04-25T00:22:11;93784.44;;;12.58;100.00
12077;BME280;12420;42.676;23.262;2023-04-25T00:24:38;93779.44;;;12.65;100.00
12077;BME280;12420;42.676;23.262;2023-04-25T00:27:06;93781.25;;;12.70;100.00
12077;BME280;12420;42.676;23.262;2023-04-25T00:29:33;93778.31;;;12.68;100.00
12077;BME280;12420;42.676;23.262;2023-04-25T00:32:00;93772.53;;;12.73;100.00
12077;BME280;12420;42.676;23.262;2023-04-25T00:34:27;93769.28;;;12.59;100.00
12077;BME280;12420;42.676;23.262;2023-04-25T00:36:54;93773.31;;;12.66;100.00
12077;BME280;12420;42.676;23.262;2023-04-25T00:39:20;93783.91;;;12.52;100.00
12077;BME280;12420;42.676;23.262;2023-04-25T00:41:47;93766.47;;;12.04;100.00
12077;BME280;12420;42.676;23.262;2023-04-25T00:44:20;93779.75;;;12.13;100.00
12077;BME280;12420;42.676;23.262;2023-04-25T00:46:47;93773.50;;;12.05;100.00
12077;BME280;12420;42.676;23.262;2023-04-25T00:49:14;93778.13;;;12.02;100.00
12077;BME280;12420;42.676;23.262;2023-04-25T00:51:42;93754.66;;;11.95;100.00
12077;BME280;12420;42.676;23.262;2023-04-25T00:54:10;93773.66;;;12.14;100.00
12077;BME280;12420;42.676;23.262;2023-04-25T00:56:38;93722.88;;;11.73;100.00
12077;BME280;12420;42.676;23.262;2023-04-25T00:59:05;93758.00;;;11.79;100.00
12077;BME280;12420;42.676;23.262;2023-04-25T01:01:34;93785.31;;;12.05;100.00
12077;BME280;12420;42.676;23.262;2023-04-25T01:04:01;93752.75;;;12.13;100.00
12077;BME280;12420;42.676;23.262;2023-04-25T01:06:28;93711.41;;;11.92;100.00
12077;BME280;12420;42.676;23.262;2023-04-25T01:08:56;93736.34;;;11.85;100.00
12077;BME280;12420;42.676;23.262;2023-04-25T01:11:23;93744.31;;;11.96;100.00
12077;BME280;12420;42.676;23.262;2023-04-25T01:13:50;93739.88;;;11.93;100.00
12077;BME280;12420;42.676;23.262;2023-04-25T01:16:17;93742.28;;;11.97;100.00
12077;BME280;12420;42.676;23.262;2023-04-25T01:18:45;93731.38;;;11.76;100.00
12077;BME280;12420;42.676;23.262;2023-04-25T01:21:14;93743.94;;;11.92;100.00
12077;BME280;12420;42.676;23.262;2023-04-25T01:23:42;93746.91;;;11.94;100.00
12077;BME280;12420;42.676;23.262;2023-04-25T01:26:10;93740.41;;;11.99;100.00
12077;BME280;12420;42.676;23.262;2023-04-25T01:28:38;93699.41;;;11.74;100.00
12077;BME280;12420;42.676;23.262;2023-04-25T01:31:06;93742.06;;;12.10;100.00
12077;BME280;12420;42.676;23.262;2023-04-25T01:33:34;93730.47;;;11.88;100.00
12077;BME280;12420;42.676;23.262;2023-04-25T01:36:01;93739.84;;;11.85;100.00
12077;BME280;12420;42.676;23.262;2023-04-25T01:38:33;93745.03;;;11.81;100.00
12077;BME280;12420;42.676;23.262;2023-04-25T01:41:01;93742.09;;;11.79;100.00
12077;BME280;12420;42.676;23.262;2023-04-25T01:43:28;93738.38;;;11.84;100.00
12077;BME280;12420;42.676;23.262;2023-04-25T01:45:56;93743.41;;;11.78;100.00
12077;BME280;12420;42.676;23.262;2023-04-25T01:48:23;93740.25;;;11.82;100.00
12077;BME280;12420;42.676;23.262;2023-04-25T01:50:50;93717.72;;;11.62;100.00
12077;BME280;12420;42.676;23.262;2023-04-25T01:53:17;93746.53;;;11.90;100.00
12077;BME280;12420;42.676;23.262;2023-04-25T01:55:45;93753.56;;;11.91;100.00
12077;BME280;12420;42.676;23.262;2023-04-25T01:58:12;93756.50;;;11.93;100.00
12077;BME280;12420;42.676;23.262;2023-04-25T02:00:38;93731.72;;;11.80;100.00
12077;BME280;12420;42.676;23.262;2023-04-25T02:03:06;93754.66;;;11.88;100.00
12077;BME280;12420;42.676;23.262;2023-04-25T02:05:37;93745.03;;;11.97;100.00
12077;BME280;12420;42.676;23.262;2023-04-25T02:08:05;93751.53;;;11.91;100.00
12077;BME280;12420;42.676;23.262;2023-04-25T02:10:32;93751.72;;;11.93;100.00
12077;BME280;12420;42.676;23.262;2023-04-25T02:13:00;93735.25;;;11.95;100.00
12077;BME280;12420;42.676;23.262;2023-04-25T02:15:27;93721.56;;;11.98;100.00
12077;BME280;12420;42.676;23.262;2023-04-25T02:17:54;93722.84;;;12.04;100.00
12077;BME280;12420;42.676;23.262;2023-04-25T02:20:22;93721.72;;;12.07;100.00
12077;BME280;12420;42.676;23.262;2023-04-25T02:22:49;93722.66;;;12.02;100.00
12077;BME280;12420;42.676;23.262;2023-04-25T02:25:17;93726.75;;;12.01;100.00
12077;BME280;12420;42.676;23.262;2023-04-25T02:27:45;93708.78;;;12.02;100.00
12077;BME280;12420;42.676;23.262;2023-04-25T02:30:14;93685.16;;;11.86;100.00
12077;BME280;12420;42.676;23.262;2023-04-25T02:32:41;93718.53;;;12.19;100.00
12077;BME280;12420;42.676;23.262;2023-04-25T02:35:09;93688.25;;;12.05;100.00
12077;BME280;12420;42.676;23.262;2023-04-25T02:37:39;93711.41;;;11.92;100.00
12077;BME280;12420;42.676;23.262;2023-04-25T02:40:07;93696.09;;;11.68;100.00
12077;BME280;12420;42.676;23.262;2023-04-25T02:42:34;93642.38;;;11.33;100.00
12077;BME280;12420;42.676;23.262;2023-04-25T02:45:01;93706.25;;;11.73;100.00
12077;BME280;12420;42.676;23.262;2023-04-25T02:47:30;93655.81;;;11.60;100.00
12077;BME280;12420;42.676;23.262;2023-04-25T02:49:57;93681.88;;;11.64;100.00
12077;BME280;12420;42.676;23.262;2023-04-25T02:52:23;93682.59;;;11.65;100.00
12077;BME280;12420;42.676;23.262;2023-04-25T02:54:50;93685.75;;;11.61;100.00
12077;BME280;12420;42.676;23.262;2023-04-25T02:57:17;93688.91;;;11.65;100.00
12077;BME280;12420;42.676;23.262;2023-04-25T02:59:44;93673.38;;;11.62;100.00
12077;BME280;12420;42.676;23.262;2023-04-25T03:02:10;93681.13;;;11.71;100.00
12077;BME280;12420;42.676;23.262;2023-04-25T03:04:38;93683.53;;;11.67;100.00
12077;BME280;12420;42.676;23.262;2023-04-25T03:07:05;93668.22;;;11.59;100.00
12077;BME280;12420;42.676;23.262;2023-04-25T03:09:32;93670.44;;;11.60;100.00
12077;BME280;12420;42.676;23.262;2023-04-25T03:11:59;93680.59;;;11.65;100.00
12077;BME280;12420;42.676;23.262;2023-04-25T03:14:25;93676.50;;;11.66;100.00
12077;BME280;12420;42.676;23.262;2023-04-25T03:16:52;93646.44;;;11.55;100.00
12077;BME280;12420;42.676;23.262;2023-04-25T03:19:19;93675.56;;;11.71;100.00
12077;BME280;12420;42.676;23.262;2023-04-25T03:21:47;93674.44;;;11.74;100.00
12077;BME280;12420;42.676;23.262;2023-04-25T03:24:14;93673.91;;;11.76;100.00
12077;BME280;12420;42.676;23.262;2023-04-25T03:26:41;93672.25;;;11.73;100.00
12077;BME280;12420;42.676;23.262;2023-04-25T03:29:08;93673.56;;;11.64;100.00
12077;BME280;12420;42.676;23.262;2023-04-25T03:31:35;93673.00;;;11.66;100.00
12077;BME280;12420;42.676;23.262;2023-04-25T03:34:02;93622.44;;;11.35;100.00
12077;BME280;12420;42.676;23.262;2023-04-25T03:36:28;93661.38;;;11.60;100.00
12077;BME280;12420;42.676;23.262;2023-04-25T03:38:56;93657.13;;;11.51;100.00
12077;BME280;12420;42.676;23.262;2023-04-25T03:41:23;93669.50;;;11.65;100.00
12077;BME280;12420;42.676;23.262;2023-04-25T03:43:50;93618.19;;;11.41;100.00
12077;BME280;12420;42.676;23.262;2023-04-25T03:46:17;93671.16;;;11.68;100.00
12077;BME280;12420;42.676;23.262;2023-04-25T03:48:43;93665.44;;;11.66;100.00
12077;BME280;12420;42.676;23.262;2023-04-25T03:51:10;93664.50;;;11.64;100.00
12077;BME280;12420;42.676;23.262;2023-04-25T03:53:37;93668.19;;;11.74;100.00
12077;BME280;12420;42.676;23.262;2023-04-25T03:56:06;93669.09;;;11.77;100.00
12077;BME280;12420;42.676;23.262;2023-04-25T03:58:33;93680.03;;;11.59;100.00
12077;BME280;12420;42.676;23.262;2023-04-25T04:01:00;93681.50;;;11.76;100.00
12077;BME280;12420;42.676;23.262;2023-04-25T04:03:33;93680.72;;;11.90;100.00
12077;BME280;12420;42.676;23.262;2023-04-25T04:06:00;93675.50;;;12.02;100.00
12077;BME280;12420;42.676;23.262;2023-04-25T04:08:28;93675.88;;;12.06;100.00
12077;BME280;12420;42.676;23.262;2023-04-25T04:10:55;93681.47;;;11.99;100.00
12077;BME280;12420;42.676;23.262;2023-04-25T04:13:23;93699.16;;;12.03;100.00
12077;BME280;12420;42.676;23.262;2023-04-25T04:15:50;93675.91;;;11.99;100.00
12077;BME280;12420;42.676;23.262;2023-04-25T04:18:17;93690.44;;;12.14;100.00
12077;BME280;12420;42.676;23.262;2023-04-25T04:20:44;93673.09;;;12.06;100.00
12077;BME280;12420;42.676;23.262;2023-04-25T04:23:11;93683.00;;;12.25;100.00
12077;BME280;12420;42.676;23.262;2023-04-25T04:25:38;93642.09;;;11.85;100.00
12077;BME280;12420;42.676;23.262;2023-04-25T04:28:07;93685.66;;;12.07;100.00
12077;BME280;12420;42.676;23.262;2023-04-25T04:30:35;93671.44;;;12.03;100.00
12077;BME280;12420;42.676;23.262;2023-04-25T04:33:03;93674.00;;;12.16;100.00
12077;BME280;12420;42.676;23.262;2023-04-25T04:35:31;93679.16;;;12.20;100.00
12077;BME280;12420;42.676;23.262;2023-04-25T04:37:58;93650.75;;;12.04;100.00
12077;BME280;12420;42.676;23.262;2023-04-25T04:40:25;93674.00;;;12.16;100.00
12077;BME280;12420;42.676;23.262;2023-04-25T04:42:51;93664.41;;;12.02;100.00
12077;BME280;12420;42.676;23.262;2023-04-25T04:45:24;93678.59;;;12.22;100.00
12077;BME280;12420;42.676;23.262;2023-04-25T04:47:55;93679.34;;;12.14;100.00
12077;BME280;12420;42.676;23.262;2023-04-25T04:50:22;93684.31;;;12.16;100.00
12077;BME280;12420;42.676;23.262;2023-04-25T04:52:48;93691.72;;;12.13;100.00
12077;BME280;12420;42.676;23.262;2023-04-25T04:55:15;93702.13;;;12.05;100.00
12077;BME280;12420;42.676;23.262;2023-04-25T04:57:42;93693.81;;;12.05;100.00
12077;BME280;12420;42.676;23.262;2023-04-25T05:00:10;93695.63;;;12.10;100.00
12077;BME280;12420;42.676;23.262;2023-04-25T05:02:38;93705.97;;;12.18;100.00
12077;BME280;12420;42.676;23.262;2023-04-25T05:05:07;93707.44;;;12.19;100.00
12077;BME280;12420;42.676;23.262;2023-04-25T05:07:34;93714.09;;;12.23;100.00
12077;BME280;12420;42.676;23.262;2023-04-25T05:10:02;93717.59;;;12.31;100.00
12077;BME280;12420;42.676;23.262;2023-04-25T05:12:29;93714.78;;;12.39;100.00
12077;BME280;12420;42.676;23.262;2023-04-25T05:14:56;93711.97;;;12.47;100.00
12077;BME280;12420;42.676;23.262;2023-04-25T05:17:23;93706.75;;;12.51;100.00
12077;BME280;12420;42.676;23.262;2023-04-25T05:19:49;93710.81;;;12.57;100.00
12077;BME280;12420;42.676;23.262;2023-04-25T05:22:18;93715.97;;;12.61;100.00
12077;BME280;12420;42.676;23.262;2023-04-25T05:24:45;93711.22;;;12.46;100.00
12077;BME280;12420;42.676;23.262;2023-04-25T05:27:15;93714.59;;;12.37;100.00
12077;BME280;12420;42.676;23.262;2023-04-25T05:29:43;93705.38;;;12.34;100.00
12077;BME280;12420;42.676;23.262;2023-04-25T05:32:09;93708.16;;;12.67;100.00
12077;BME280;12420;42.676;23.262;2023-04-25T05:34:36;93719.53;;;12.46;100.00
12077;BME280;12420;42.676;23.262;2023-04-25T05:37:03;93705.25;;;12.57;100.00
12077;BME280;12420;42.676;23.262;2023-04-25T05:39:31;93710.19;;;12.67;100.00
12077;BME280;12420;42.676;23.262;2023-04-25T05:41:58;93712.53;;;12.78;100.00
12077;BME280;12420;42.676;23.262;2023-04-25T05:44:26;93719.28;;;12.92;100.00
12077;BME280;12420;42.676;23.262;2023-04-25T05:46:53;93714.69;;;12.87;100.00
12077;BME280;12420;42.676;23.262;2023-04-25T05:49:20;93702.22;;;12.71;100.00
12077;BME280;12420;42.676;23.262;2023-04-25T05:51:47;93712.19;;;12.74;100.00
12077;BME280;12420;42.676;23.262;2023-04-25T05:54:14;93719.06;;;12.73;100.00
12077;BME280;12420;42.676;23.262;2023-04-25T05:56:42;93720.00;;;12.68;100.00
12077;BME280;12420;42.676;23.262;2023-04-25T05:59:09;93709.09;;;12.70;100.00
12077;BME280;12420;42.676;23.262;2023-04-25T06:01:35;93704.47;;;12.65;100.00
12077;BME280;12420;42.676;23.262;2023-04-25T06:04:03;93711.81;;;12.77;100.00
12077;BME280;12420;42.676;23.262;2023-04-25T06:06:30;93719.69;;;12.89;100.00
12077;BME280;12420;42.676;23.262;2023-04-25T06:08:58;93726.91;;;12.92;100.00
12077;BME280;12420;42.676;23.262;2023-04-25T06:11:25;93717.84;;;12.91;100.00
12077;BME280;12420;42.676;23.262;2023-04-25T06:13:53;93720.59;;;12.91;100.00
12077;BME280;12420;42.676;23.262;2023-04-25T06:16:20;93731.91;;;12.93;100.00
12077;BME280;12420;42.676;23.262;2023-04-25T06:18:47;93719.09;;;12.98;100.00
12077;BME280;12420;42.676;23.262;2023-04-25T06:21:14;93719.38;;;13.10;100.00
12077;BME280;12420;42.676;23.262;2023-04-25T06:23:41;93698.09;;;12.79;100.00
12077;BME280;12420;42.676;23.262;2023-04-25T06:26:08;93725.28;;;13.14;100.00
12077;BME280;12420;42.676;23.262;2023-04-25T06:28:35;93707.09;;;13.20;100.00
12077;BME280;12420;42.676;23.262;2023-04-25T06:31:04;93713.56;;;13.23;100.00
12077;BME280;12420;42.676;23.262;2023-04-25T06:33:30;93708.22;;;13.17;100.00
12077;BME280;12420;42.676;23.262;2023-04-25T06:35:57;93696.47;;;13.01;100.00
12077;BME280;12420;42.676;23.262;2023-04-25T06:38:24;93702.72;;;13.10;100.00
12077;BME280;12420;42.676;23.262;2023-04-25T06:40:50;93716.97;;;13.39;100.00
12077;BME280;12420;42.676;23.262;2023-04-25T06:43:17;93741.09;;;13.79;100.00
12077;BME280;12420;42.676;23.262;2023-04-25T06:45:44;93739.47;;;13.76;100.00
12077;BME280;12420;42.676;23.262;2023-04-25T06:48:13;93739.03;;;13.62;100.00
12077;BME280;12420;42.676;23.262;2023-04-25T06:50:40;93738.69;;;13.58;100.00
12077;BME280;12420;42.676;23.262;2023-04-25T06:53:07;93737.72;;;13.63;100.00
12077;BME280;12420;42.676;23.262;2023-04-25T06:55:36;93739.34;;;13.66;100.00
12077;BME280;12420;42.676;23.262;2023-04-25T06:58:03;93730.34;;;13.58;100.00
12077;BME280;12420;42.676;23.262;2023-04-25T07:00:30;93734.44;;;13.57;100.00
12077;BME280;12420;42.676;23.262;2023-04-25T07:02:57;93700.75;;;13.28;100.00
12077;BME280;12420;42.676;23.262;2023-04-25T07:05:26;93708.06;;;13.40;100.00
12077;BME280;12420;42.676;23.262;2023-04-25T07:07:53;93746.00;;;13.71;100.00
12077;BME280;12420;42.676;23.262;2023-04-25T07:10:20;93716.78;;;13.62;100.00
12077;BME280;12420;42.676;23.262;2023-04-25T07:12:47;93707.34;;;13.82;100.00
12077;BME280;12420;42.676;23.262;2023-04-25T07:15:13;93721.66;;;13.96;100.00
12077;BME280;12420;42.676;23.262;2023-04-25T07:17:40;93737.84;;;13.90;100.00
12077;BME280;12420;42.676;23.262;2023-04-25T07:20:08;93723.34;;;13.92;100.00
12077;BME280;12420;42.676;23.262;2023-04-25T07:22:36;93739.91;;;13.89;100.00
12077;BME280;12420;42.676;23.262;2023-04-25T07:25:03;93721.78;;;13.81;100.00
12077;BME280;12420;42.676;23.262;2023-04-25T07:27:30;93720.75;;;13.94;100.00
12077;BME280;12420;42.676;23.262;2023-04-25T07:29:57;93724.78;;;14.00;100.00
12077;BME280;12420;42.676;23.262;2023-04-25T07:32:25;93721.91;;;14.08;100.00
12077;BME280;12420;42.676;23.262;2023-04-25T07:34:52;93722.81;;;14.28;100.00
12077;BME280;12420;42.676;23.262;2023-04-25T07:37:37;93721.06;;;14.50;100.00
12077;BME280;12420;42.676;23.262;2023-04-25T07:43:26;93711.97;;;14.67;100.00
12077;BME280;12420;42.676;23.262;2023-04-25T07:45:52;93709.19;;;14.67;100.00
12077;BME280;12420;42.676;23.262;2023-04-25T07:48:19;93719.53;;;15.11;100.00
12077;BME280;12420;42.676;23.262;2023-04-25T07:50:46;93722.31;;;15.11;100.00
12077;BME280;12420;42.676;23.262;2023-04-25T07:53:15;93724.19;;;14.98;100.00
12077;BME280;12420;42.676;23.262;2023-04-25T07:55:42;93743.50;;;15.24;100.00
12077;BME280;12420;42.676;23.262;2023-04-25T07:58:10;93715.38;;;15.29;100.00
12077;BME280;12420;42.676;23.262;2023-04-25T08:00:38;93724.47;;;15.30;100.00
12077;BME280;12420;42.676;23.262;2023-04-25T08:03:04;93724.13;;;15.53;100.00
12077;BME280;12420;42.676;23.262;2023-04-25T08:05:31;93703.72;;;15.50;100.00
12077;BME280;12420;42.676;23.262;2023-04-25T08:07:59;93723.03;;;15.75;100.00
12077;BME280;12420;42.676;23.262;2023-04-25T08:10:28;93721.03;;;15.95;100.00
12077;BME280;12420;42.676;23.262;2023-04-25T08:12:55;93716.78;;;16.14;100.00
12077;BME280;12420;42.676;23.262;2023-04-25T08:15:22;93728.09;;;16.06;100.00
12077;BME280;12420;42.676;23.262;2023-04-25T08:17:49;93711.78;;;16.22;100.00
12077;BME280;12420;42.676;23.262;2023-04-25T08:20:16;93694.44;;;16.14;100.00
12077;BME280;12420;42.676;23.262;2023-04-25T08:22:43;93714.41;;;16.59;100.00
12077;BME280;12420;42.676;23.262;2023-04-25T08:25:10;93704.56;;;16.48;100.00
12077;BME280;12420;42.676;23.262;2023-04-25T08:27:38;93716.94;;;16.45;100.00
12077;BME280;12420;42.676;23.262;2023-04-25T08:30:06;93709.28;;;16.36;100.00
12077;BME280;12420;42.676;23.262;2023-04-25T08:32:34;93720.31;;;16.43;100.00
12077;BME280;12420;42.676;23.262;2023-04-25T08:35:03;93705.59;;;16.33;100.00
12077;BME280;12420;42.676;23.262;2023-04-25T08:37:30;93731.31;;;16.51;100.00
12077;BME280;12420;42.676;23.262;2023-04-25T08:39:57;93721.34;;;16.19;100.00
12077;BME280;12420;42.676;23.262;2023-04-25T08:42:24;93716.78;;;16.14;100.00
12077;BME280;12420;42.676;23.262;2023-04-25T08:44:55;93670.06;;;16.04;89.88
12077;BME280;12420;42.676;23.262;2023-04-25T08:47:22;93716.94;;;16.35;88.12
12077;BME280;12420;42.676;23.262;2023-04-25T08:49:50;93707.66;;;16.71;86.15
12077;BME280;12420;42.676;23.262;2023-04-25T08:52:21;93716.47;;;16.87;91.07
12077;BME280;12420;42.676;23.262;2023-04-25T08:54:49;93705.47;;;16.80;87.05
12077;BME280;12420;42.676;23.262;2023-04-25T08:57:18;93703.09;;;16.86;90.02
12077;BME280;12420;42.676;23.262;2023-04-25T08:59:46;93702.19;;;16.93;88.46
12077;BME280;12420;42.676;23.262;2023-04-25T09:02:16;93698.66;;;17.02;88.11
12077;BME280;12420;42.676;23.262;2023-04-25T09:04:46;93701.13;;;17.08;78.70
12077;BME280;12420;42.676;23.262;2023-04-25T09:07:13;93704.16;;;17.22;83.20
12077;BME280;12420;42.676;23.262;2023-04-25T09:09:43;93711.66;;;17.19;80.84
12077;BME280;12420;42.676;23.262;2023-04-25T09:12:10;93690.09;;;17.41;86.78
12077;BME280;12420;42.676;23.262;2023-04-25T09:14:37;93698.22;;;17.68;87.67
12077;BME280;12420;42.676;23.262;2023-04-25T09:17:05;93683.28;;;17.75;82.98
12077;BME280;12420;42.676;23.262;2023-04-25T09:19:35;93692.75;;;17.70;71.73
12077;BME280;12420;42.676;23.262;2023-04-25T09:22:05;93688.34;;;17.67;72.00
12077;BME280;12420;42.676;23.262;2023-04-25T09:24:34;93691.03;;;17.96;74.68
12077;BME280;12420;42.676;23.262;2023-04-25T09:27:05;93680.41;;;17.95;69.89
12077;BME280;12420;42.676;23.262;2023-04-25T09:29:33;93691.66;;;18.28;69.04
12077;BME280;12420;42.676;23.262;2023-04-25T09:32:15;93674.59;;;18.03;60.22
12077;BME280;12420;42.676;23.262;2023-04-25T09:34:45;93677.81;;;17.87;62.82
12077;BME280;12420;42.676;23.262;2023-04-25T09:37:17;93681.34;;;17.88;62.50
12077;BME280;12420;42.676;23.262;2023-04-25T09:39:44;93683.59;;;18.01;64.57
12077;BME280;12420;42.676;23.262;2023-04-25T09:42:11;93686.28;;;17.99;63.20
12077;BME280;12420;42.676;23.262;2023-04-25T09:44:42;93694.56;;;17.66;61.29
12077;BME280;12420;42.676;23.262;2023-04-25T09:47:10;93677.97;;;17.58;59.55
12077;BME280;12420;42.676;23.262;2023-04-25T09:49:39;93671.63;;;17.89;59.23
12077;BME280;12420;42.676;23.262;2023-04-25T09:52:13;93681.63;;;17.92;56.00
12077;BME280;12420;42.676;23.262;2023-04-25T09:54:40;93667.97;;;17.76;57.69
12077;BME280;12420;42.676;23.262;2023-04-25T09:57:11;93670.34;;;17.80;79.29
12077;BME280;12420;42.676;23.262;2023-04-25T09:59:39;93657.63;;;17.57;87.95
12077;BME280;12420;42.676;23.262;2023-04-25T10:02:09;93669.69;;;17.60;88.15
12077;BME280;12420;42.676;23.262;2023-04-25T10:04:37;93688.88;;;17.54;84.30
12077;BME280;12420;42.676;23.262;2023-04-25T10:07:06;93684.66;;;17.43;84.77
12077;BME280;12420;42.676;23.262;2023-04-25T10:09:38;93726.91;;;17.38;76.35
12077;BME280;12420;42.676;23.262;2023-04-25T10:12:08;93708.72;;;17.17;68.36
12077;BME280;12420;42.676;23.262;2023-04-25T10:14:35;93692.38;;;16.63;72.04
12077;BME280;12420;42.676;23.262;2023-04-25T10:17:02;93688.53;;;16.68;73.72
12077;BME280;12420;42.676;23.262;2023-04-25T10:19:29;93692.44;;;17.04;76.64
12077;BME280;12420;42.676;23.262;2023-04-25T10:22:04;93690.19;;;17.22;73.08
12077;BME280;12420;42.676;23.262;2023-04-25T10:24:35;93695.72;;;17.31;73.18
12077;BME280;12420;42.676;23.262;2023-04-25T10:27:02;93685.66;;;17.48;73.73
12077;BME280;12420;42.676;23.262;2023-04-25T10:29:29;93672.09;;;17.75;72.43
12077;BME280;12420;42.676;23.262;2023-04-25T10:31:56;93660.22;;;17.96;69.70
12077;BME280;12420;42.676;23.262;2023-04-25T10:34:25;93652.41;;;17.95;67.01
12077;BME280;12420;42.676;23.262;2023-04-25T10:37:05;93674.13;;;18.06;61.54
12077;BME280;12420;42.676;23.262;2023-04-25T10:39:34;93663.44;;;17.71;61.55
12077;BME280;12420;42.676;23.262;2023-04-25T10:42:02;93661.31;;;17.29;62.04
12077;BME280;12420;42.676;23.262;2023-04-25T10:44:29;93655.25;;;16.91;61.33
12077;BME280;12420;42.676;23.262;2023-04-25T10:46:56;93656.91;;;17.26;65.50
12077;BME280;12420;42.676;23.262;2023-04-25T10:49:34;93667.97;;;17.14;62.53
12077;BME280;12420;42.676;23.262;2023-04-25T10:52:15;93670.38;;;17.08;65.00
12077;BME280;12420;42.676;23.262;2023-04-25T10:54:46;93659.28;;;16.69;70.73
12077;BME280;12420;42.676;23.262;2023-04-25T10:57:35;93654.47;;;17.10;67.47
12077;BME280;12420;42.676;23.262;2023-04-25T11:00:16;93656.09;;;17.04;65.71
12077;BME280;12420;42.676;23.262;2023-04-25T11:02:45;93652.34;;;16.89;64.75
12077;BME280;12420;42.676;23.262;2023-04-25T11:05:20;93645.19;;;16.57;66.29
12077;BME280;12420;42.676;23.262;2023-04-25T11:07:50;93642.97;;;16.65;68.15
12077;BME280;12420;42.676;23.262;2023-04-25T11:10:19;93648.38;;;16.83;68.44
12077;BME280;12420;42.676;23.262;2023-04-25T11:12:46;93659.25;;;16.88;68.76
12077;BME280;12420;42.676;23.262;2023-04-25T11:15:14;93656.19;;;16.84;66.88
12077;BME280;12420;42.676;23.262;2023-04-25T11:17:41;93618.31;;;16.42;68.14
12077;BME280;12420;42.676;23.262;2023-04-25T11:20:11;93635.31;;;16.56;69.86
12077;BME280;12420;42.676;23.262;2023-04-25T11:22:44;93658.59;;;16.49;70.23
12077;BME280;12420;42.676;23.262;2023-04-25T11:25:12;93649.91;;;16.35;71.73
12077;BME280;12420;42.676;23.262;2023-04-25T11:27:50;93646.13;;;16.21;73.13
12077;BME280;12420;42.676;23.262;2023-04-25T11:30:18;93660.06;;;16.21;76.30
12077;BME280;12420;42.676;23.262;2023-04-25T11:32:45;93632.16;;;15.82;78.93
12077;BME280;12420;42.676;23.262;2023-04-25T11:35:12;93662.63;;;15.60;78.66
12077;BME280;12420;42.676;23.262;2023-04-25T11:37:40;93676.41;;;15.49;76.47
12077;BME280;12420;42.676;23.262;2023-04-25T11:40:08;93675.19;;;15.32;76.20
12077;BME280;12420;42.676;23.262;2023-04-25T11:42:37;93624.94;;;14.49;80.80
12077;BME280;12420;42.676;23.262;2023-04-25T11:45:06;93685.28;;;14.64;85.47
12077;BME280;12420;42.676;23.262;2023-04-25T11:47:35;93691.31;;;14.52;89.82
12077;BME280;12420;42.676;23.262;2023-04-25T11:50:03;93661.28;;;14.68;91.86
12077;BME280;12420;42.676;23.262;2023-04-25T11:52:40;93636.50;;;14.72;90.61
12077;BME280;12420;42.676;23.262;2023-04-25T11:55:08;93649.09;;;15.01;93.96
12077;BME280;12420;42.676;23.262;2023-04-25T11:57:37;93643.16;;;15.24;100.00
12077;BME280;12420;42.676;23.262;2023-04-25T12:00:09;93630.34;;;15.57;100.00
12077;BME280;12420;42.676;23.262;2023-04-25T12:02:40;93639.66;;;15.99;99.48
12077;BME280;12420;42.676;23.262;2023-04-25T12:05:07;93641.41;;;16.23;97.67
12077;BME280;12420;42.676;23.262;2023-04-25T12:07:35;93635.06;;;16.23;87.04
12077;BME280;12420;42.676;23.262;2023-04-25T12:10:05;93638.72;;;16.45;94.13
12077;BME280;12420;42.676;23.262;2023-04-25T12:12:32;93595.56;;;16.17;89.08
12077;BME280;12420;42.676;23.262;2023-04-25T12:15:09;93641.69;;;16.47;83.07
12077;BME280;12420;42.676;23.262;2023-04-25T12:17:36;93627.09;;;16.48;82.49
12077;BME280;12420;42.676;23.262;2023-04-25T12:20:09;93646.31;;;16.74;85.29
12077;BME280;12420;42.676;23.262;2023-04-25T12:22:36;93641.47;;;16.74;78.04
12077;BME280;12420;42.676;23.262;2023-04-25T12:25:04;93662.34;;;16.92;74.86
12077;BME280;12420;42.676;23.262;2023-04-25T12:27:31;93696.19;;;16.67;80.82
12077;BME280;12420;42.676;23.262;2023-04-25T12:29:59;93692.41;;;15.48;87.58
12077;BME280;12420;42.676;23.262;2023-04-25T12:32:30;93700.72;;;14.74;94.25
12077;BME280;12420;42.676;23.262;2023-04-25T12:34:57;93656.09;;;14.20;97.57
12077;BME280;12420;42.676;23.262;2023-04-25T12:37:25;93690.16;;;14.28;100.00
12077;BME280;12420;42.676;23.262;2023-04-25T12:39:52;93679.44;;;14.07;100.00
12077;BME280;12420;42.676;23.262;2023-04-25T12:42:18;93694.72;;;13.81;100.00
12077;BME280;12420;42.676;23.262;2023-04-25T12:44:45;93691.59;;;13.60;100.00
12077;BME280;12420;42.676;23.262;2023-04-25T12:47:12;93707.13;;;13.63;100.00
12077;BME280;12420;42.676;23.262;2023-04-25T12:49:40;93700.66;;;13.60;100.00